Time;durP1;ratioP1;P1;durP2;ratioP2;P2;SDS_P1;SDS_P2;PMS_P1;PMS_P2;Temp;Humidity;BMP_temperature;BMP_pressure;BME280_temperature;BME280_humidity;BME280_pressure;Samples;Min_cycle;Max_cycle;Signal;HPM_P1;HPM_P2
2022/06/27 00:02:07;;;;;;;2.67;1.87;;;;;;;;;;4951325;28;20467;-87
2022/06/27 00:04:33;;;;;;;1.97;1.17;;;;;;;;;;4967673;28;20475;-86
2022/06/27 00:06:59;;;;;;;2.07;1.47;;;;;;;;;;4948310;28;21093;-84
2022/06/27 00:09:25;;;;;;;1.43;1.27;;;;;;;;;;4963866;28;20467;-87
2022/06/27 00:11:51;;;;;;;2.30;1.10;;;;;;;;;;4947041;28;20529;-87
2022/06/27 00:14:17;;;;;;;2.83;1.57;;;;;;;;;;4951760;28;21185;-87
2022/06/27 00:16:43;;;;;;;4.03;1.40;;;;;;;;;;4969662;28;20476;-86
2022/06/27 00:19:09;;;;;;;3.80;1.33;;;;;;;;;;4947904;28;20447;-87
2022/06/27 00:21:35;;;;;;;0.80;0.80;;;;;;;;;;4961749;28;20446;-88
2022/06/27 00:24:01;;;;;;;2.50;0.80;;;;;;;;;;4948600;28;20708;-86
2022/06/27 00:26:27;;;;;;;5.70;1.30;;;;;;;;;;4964658;28;20519;-86
2022/06/27 00:28:53;;;;;;;3.33;1.13;;;;;;;;;;4951456;28;20585;-87
2022/06/27 00:31:19;;;;;;;5.33;0.70;;;;;;;;;;4967237;28;20571;-86
2022/06/27 00:33:45;;;;;;;0.80;0.70;;;;;;;;;;4966600;28;20439;-86
2022/06/27 00:36:11;;;;;;;2.47;0.80;;;;;;;;;;4958995;28;20461;-85
2022/06/27 00:38:37;;;;;;;1.37;0.80;;;;;;;;;;4946052;28;20448;-87
2022/06/27 00:41:03;;;;;;;1.00;0.50;;;;;;;;;;4948013;28;20466;-85
2022/06/27 00:43:29;;;;;;;0.60;0.50;;;;;;;;;;4951776;28;20553;-87
2022/06/27 00:45:55;;;;;;;1.13;1.03;;;;;;;;;;4958021;28;21520;-86
2022/06/27 00:48:21;;;;;;;1.37;0.60;;;;;;;;;;4955785;28;22373;-84
2022/06/27 00:50:47;;;;;;;1.20;0.67;;;;;;;;;;4966751;28;20448;-88
2022/06/27 00:53:13;;;;;;;1.40;0.53;;;;;;;;;;4963687;28;20450;-87
2022/06/27 00:58:05;;;;;;;1.90;0.83;;;;;;;;;;5012541;22;20547;-88
2022/06/27 01:00:32;;;;;;;1.33;0.73;;;16.90;99.90;;;;;;4999957;28;20472;-86
2022/06/27 01:02:58;;;;;;;2.60;0.60;;;;;;;;;;5015429;28;20504;-88
2022/06/27 01:05:24;;;;;;;2.07;0.83;;;;;;;;;;5004039;28;20441;-88
2022/06/27 01:07:50;;;;;;;4.83;1.00;;;;;;;;;;4978355;28;20455;-88
2022/06/27 01:10:16;;;;;;;0.70;0.43;;;;;;;;;;4989336;28;20528;-89
2022/06/27 01:12:42;;;;;;;0.90;0.70;;;;;;;;;;4971022;28;20613;-89
2022/06/27 01:15:10;;;;;;;0.50;0.40;;;17.30;99.90;;;;;;4997937;28;21005;-89
2022/06/27 01:17:36;;;;;;;1.13;0.60;;;;;;;;;;4989076;28;20559;-89
2022/06/27 01:20:02;;;;;;;0.80;0.60;;;;;;;;;;4969746;28;20431;-90
2022/06/27 01:22:28;;;;;;;0.97;0.70;;;;;;;;;;4973278;28;20481;-88
2022/06/27 01:24:54;;;;;;;1.53;0.57;;;;;;;;;;4989884;28;20948;-90
2022/06/27 01:27:20;;;;;;;3.40;0.77;;;;;;;;;;4990421;28;20466;-89
2022/06/27 01:29:46;;;;;;;1.27;1.00;;;;;;;;;;4993312;28;20509;-90
2022/06/27 01:32:12;;;;;;;2.87;1.00;;;;;;;;;;4972895;28;20510;-89
2022/06/27 01:34:38;;;;;;;2.33;0.87;;;;;;;;;;4992803;28;20430;-89
2022/06/27 01:37:05;;;;;;;2.03;0.70;;;17.00;99.90;;;;;;4973770;28;20854;-88
2022/06/27 01:39:31;;;;;;;2.43;0.97;;;;;;;;;;4972185;28;20439;-88
2022/06/27 01:41:59;;;;;;;3.70;1.10;;;16.70;99.90;;;;;;4989497;28;20445;-87
2022/06/27 01:44:28;;;;;;;1.10;1.00;;;16.70;99.90;;;;;;4984075;28;20466;-87
2022/06/27 01:46:59;;;;;;;2.50;1.27;;;16.80;99.90;;;;;;5004244;28;20479;-89
2022/06/27 01:49:26;;;;;;;1.10;0.90;;;;;;;;;;4989823;28;20474;-88
2022/06/27 01:51:52;;;;;;;1.80;1.00;;;;;;;;;;4986328;28;20474;-89
2022/06/27 01:54:22;;;;;;;1.63;1.23;;;16.80;99.90;;;;;;4971583;28;20435;-88
2022/06/27 01:56:54;;;;;;;2.23;0.90;;;16.90;99.90;;;;;;4988243;28;20564;-88
2022/06/27 01:59:30;;;;;;;0.90;0.77;;;16.90;99.90;;;;;;4976444;28;20449;-86
2022/06/27 02:01:58;;;;;;;0.77;0.73;;;;;;;;;;4991829;28;22192;-87
2022/06/27 02:04:24;;;;;;;1.20;0.80;;;;;;;;;;4980786;28;20479;-87
2022/06/27 02:06:51;;;;;;;1.93;1.03;;;16.80;99.90;;;;;;4990214;28;20461;-87
2022/06/27 02:09:17;;;;;;;1.33;0.80;;;;;;;;;;4975745;28;20538;-89
2022/06/27 02:11:45;;;;;;;0.60;0.57;;;16.90;99.90;;;;;;5001993;28;20431;-88
2022/06/27 02:14:11;;;;;;;1.80;0.73;;;;;;;;;;4987841;28;20483;-88
2022/06/27 02:16:39;;;;;;;1.07;0.63;;;;;;;;;;4974796;28;20526;-89
2022/06/27 02:19:06;;;;;;;0.97;0.77;;;16.80;99.90;;;;;;4974427;28;20439;-89
2022/06/27 02:21:32;;;;;;;0.87;0.70;;;;;;;;;;4968993;28;20547;-89
2022/06/27 02:23:58;;;;;;;1.80;0.70;;;;;;;;;;4970004;28;20463;-89
2022/06/27 02:26:25;;;;;;;1.33;1.10;;;16.70;99.90;;;;;;4991246;28;20548;-88
2022/06/27 02:28:53;;;;;;;1.10;0.90;;;16.70;99.90;;;;;;4979813;28;20438;-87
2022/06/27 02:31:22;;;;;;;2.80;0.90;;;16.80;99.90;;;;;;4991860;28;20564;-88
2022/06/27 02:33:49;;;;;;;2.77;1.00;;;;;;;;;;5009870;28;20767;-88
2022/06/27 02:36:35;;;;;;;1.13;1.03;;;16.60;99.90;;;;;;4989990;28;20585;-89
2022/06/27 02:39:03;;;;;;;23.17;1.60;;;16.70;99.90;;;;;;4976798;28;20446;-88
2022/06/27 02:41:33;;;;;;;1.40;1.07;;;16.60;99.90;;;;;;4980502;28;20493;-88
2022/06/27 02:44:07;;;;;;;1.43;1.07;;;16.60;99.90;;;;;;4992688;28;20473;-88
2022/06/27 02:46:33;;;;;;;3.33;0.90;;;;;;;;;;4985039;28;20457;-86
2022/06/27 02:49:02;;;;;;;3.40;1.17;;;16.60;99.90;;;;;;4981893;28;20486;-88
2022/06/27 02:51:35;;;;;;;1.30;1.00;;;16.30;99.90;;;;;;4989394;28;20478;-90
2022/06/27 02:54:05;;;;;;;2.70;1.20;;;16.60;99.90;;;;;;4972946;28;21519;-87
2022/06/27 02:56:32;;;;;;;2.23;1.07;;;16.50;99.90;;;;;;4977314;28;21488;-87
2022/06/27 02:59:10;;;;;;;1.80;1.10;;;16.50;99.90;;;;;;4990372;28;20526;-87
2022/06/27 03:01:38;;;;;;;1.40;1.00;;;17.10;99.90;;;;;;4966828;28;20519;-87
2022/06/27 03:04:04;;;;;;;5.30;1.33;;;16.50;99.90;;;;;;4977085;28;20976;-87
2022/06/27 03:06:30;;;;;;;1.40;1.10;;;17.90;99.90;;;;;;4977201;28;20445;-87
2022/06/27 03:08:56;;;;;;;2.40;1.30;;;;;;;;;;4974171;28;20681;-87
2022/06/27 03:11:23;;;;;;;1.93;1.03;;;16.30;99.90;;;;;;4994443;28;20230;-87
2022/06/27 03:13:50;;;;;;;3.77;1.60;;;16.30;99.90;;;;;;4975644;28;20445;-87
2022/06/27 03:16:17;;;;;;;2.87;1.50;;;16.30;99.90;;;;;;4993459;28;20450;-88
2022/06/27 03:18:43;;;;;;;1.57;1.23;;;;;;;;;;4987203;28;20524;-87
2022/06/27 03:21:11;;;;;;;1.63;1.30;;;;;;;;;;4989107;28;21017;-87
2022/06/27 03:23:37;;;;;;;2.40;1.30;;;;;;;;;;4989781;28;20469;-86
2022/06/27 03:26:03;;;;;;;1.77;1.40;;;;;;;;;;4989282;28;20458;-88
2022/06/27 03:28:29;;;;;;;2.00;1.90;;;;;;;;;;4973446;28;20430;-89
2022/06/27 03:30:55;;;;;;;3.57;1.60;;;;;;;;;;4989784;28;20431;-86
2022/06/27 03:33:21;;;;;;;3.93;1.60;;;;;;;;;;4976108;28;20435;-87
2022/06/27 03:35:47;;;;;;;2.20;1.40;;;;;;;;;;4988955;28;20443;-86
2022/06/27 03:38:13;;;;;;;3.27;1.73;;;;;;;;;;5008792;28;20463;-88
2022/06/27 03:40:39;;;;;;;5.57;2.23;;;;;;;;;;4997911;28;20446;-89
2022/06/27 03:43:05;;;;;;;3.07;1.10;;;;;;;;;;4975504;28;20558;-88
2022/06/27 03:45:31;;;;;;;2.20;1.70;;;;;;;;;;5009657;28;20419;-89
2022/06/27 03:47:59;;;;;;;1.33;1.23;;;16.30;99.90;;;;;;5005577;28;20817;-89
2022/06/27 03:50:25;;;;;;;1.10;1.00;;;16.30;99.90;;;;;;4978559;28;20442;-88
2022/06/27 03:52:52;;;;;;;1.83;1.00;;;16.40;99.90;;;;;;4988516;28;20493;-90
2022/06/27 03:55:18;;;;;;;2.03;1.53;;;16.40;99.90;;;;;;4975665;28;20459;-89
2022/06/27 03:57:49;;;;;;;2.00;1.43;;;16.20;99.90;;;;;;4980184;28;20478;-89
2022/06/27 04:00:15;;;;;;;1.90;1.40;;;;;;;;;;4973676;28;20586;-88
2022/06/27 04:02:41;;;;;;;4.77;1.17;;;;;;;;;;5013061;28;20452;-89
2022/06/27 04:05:07;;;;;;;1.97;1.13;;;16.50;99.90;;;;;;4976823;28;20439;-88
2022/06/27 04:07:33;;;;;;;1.50;1.13;;;;;;;;;;4986040;28;20478;-89
2022/06/27 04:09:59;;;;;;;3.20;1.10;;;;;;;;;;4978586;28;20213;-88
2022/06/27 04:12:25;;;;;;;3.53;1.23;;;;;;;;;;4968901;28;22449;-88
2022/06/27 04:14:51;;;;;;;2.07;1.13;;;;;;;;;;4984878;28;22864;-89
2022/06/27 04:17:17;;;;;;;2.57;2.33;;;;;;;;;;4969986;28;20522;-88
2022/06/27 04:19:44;;;;;;;1.23;1.13;;;16.60;99.90;;;;;;4972124;28;20533;-88
2022/06/27 04:22:10;;;;;;;3.33;1.23;;;;;;;;;;4972693;28;20485;-88
2022/06/27 04:24:36;;;;;;;1.77;1.47;;;;;;;;;;4972188;28;21050;-87
2022/06/27 04:27:02;;;;;;;3.57;1.30;;;;;;;;;;4971171;28;20462;-89
2022/06/27 04:29:30;;;;;;;11.00;1.70;;;;;;;;;;4971446;28;20446;-87
2022/06/27 04:31:56;;;;;;;2.60;1.20;;;;;;;;;;4968066;28;20462;-86
2022/06/27 04:34:22;;;;;;;1.67;0.87;;;;;;;;;;4988357;28;20789;-89
2022/06/27 04:36:48;;;;;;;2.17;0.80;;;;;;;;;;4973909;28;20458;-89
2022/06/27 04:39:19;;;;;;;1.50;1.07;;;;;;;;;;4989879;28;20465;-87
2022/06/27 04:41:46;;;;;;;2.37;1.23;;;;;;;;;;4989565;28;20954;-87
2022/06/27 04:44:13;;;;;;;2.93;1.33;;;;;;;;;;4964895;28;20474;-88
2022/06/27 04:46:40;;;;;;;2.60;1.73;;;;;;;;;;4985752;28;20465;-85
2022/06/27 04:49:06;;;;;;;0.87;0.87;;;;;;;;;;4987521;28;20446;-86
2022/06/27 04:51:32;;;;;;;4.07;1.00;;;;;;;;;;4978378;28;20431;-85
2022/06/27 04:53:58;;;;;;;1.17;1.07;;;;;;;;;;4970113;28;20486;-86
2022/06/27 04:56:25;;;;;;;1.60;1.40;;;;;;;;;;4975410;28;21070;-88
2022/06/27 04:58:51;;;;;;;3.20;1.37;;;;;;;;;;4967692;28;20720;-86
2022/06/27 05:01:17;;;;;;;1.73;1.43;;;;;;;;;;5002567;28;20454;-86
2022/06/27 05:03:43;;;;;;;4.10;1.50;;;;;;;;;;4978634;28;21395;-87
2022/06/27 05:06:09;;;;;;;5.63;2.83;;;;;;;;;;4969290;28;20498;-89
2022/06/27 05:08:37;;;;;;;5.40;2.63;;;;;;;;;;4983257;28;20452;-86
2022/06/27 05:11:03;;;;;;;5.30;2.90;;;;;;;;;;4965341;28;20551;-85
2022/06/27 05:13:29;;;;;;;2.77;1.73;;;;;;;;;;4998749;28;20455;-88
2022/06/27 05:15:55;;;;;;;5.93;2.07;;;;;;;;;;4984961;28;21004;-87
2022/06/27 05:18:21;;;;;;;1.30;1.20;;;;;;;;;;4978731;28;20514;-88
2022/06/27 05:20:48;;;;;;;2.50;2.30;;;;;;;;;;4979203;28;20435;-88
2022/06/27 05:23:14;;;;;;;3.10;2.00;;;;;;;;;;4987491;28;20467;-89
2022/06/27 05:25:41;;;;;;;2.80;2.00;;;;;;;;;;4987790;28;20968;-87
2022/06/27 05:28:07;;;;;;;5.73;2.73;;;;;;;;;;4968887;28;20462;-88
2022/06/27 05:30:33;;;;;;;5.23;2.90;;;;;;;;;;4975996;28;20435;-88
2022/06/27 05:33:00;;;;;;;2.00;1.60;;;;;;;;;;4988615;28;20473;-88
2022/06/27 05:35:26;;;;;;;1.80;1.70;;;;;;;;;;4967425;28;22878;-88
2022/06/27 05:37:54;;;;;;;3.50;2.53;;;;;;;;;;4987639;28;20459;-88
2022/06/27 05:40:21;;;;;;;3.53;2.90;;;17.80;99.90;;;;;;4990362;28;20487;-89
2022/06/27 05:42:48;;;;;;;4.70;2.10;;;17.80;99.90;;;;;;4978315;28;20485;-88
2022/06/27 05:45:15;;;;;;;4.20;2.30;;;17.80;99.90;;;;;;4972481;28;20546;-88
2022/06/27 05:47:41;;;;;;;3.00;2.17;;;;;;;;;;4971916;28;20699;-89
2022/06/27 05:50:08;;;;;;;3.10;1.93;;;17.80;99.90;;;;;;4983028;28;20873;-88
2022/06/27 05:52:34;;;;;;;5.13;1.90;;;;;;;;;;4970505;28;20434;-88
2022/06/27 05:55:01;;;;;;;3.90;2.70;;;;;;;;;;4970060;28;20442;-87
2022/06/27 05:57:28;;;;;;;2.10;1.87;;;;;;;;;;4980600;28;20688;-87
2022/06/27 05:59:55;;;;;;;2.60;2.23;;;;;;;;;;4989234;28;20532;-88
2022/06/27 06:02:21;;;;;;;3.57;3.00;;;;;;;;;;4975605;28;20520;-88
2022/06/27 06:04:47;;;;;;;4.13;3.60;;;;;;;;;;4974225;28;20470;-88
2022/06/27 06:07:14;;;;;;;4.30;3.83;;;;;;;;;;4993679;28;20455;-89
2022/06/27 06:09:41;;;;;;;4.37;3.63;;;17.50;99.90;;;;;;4979866;28;20415;-88
2022/06/27 06:12:09;;;;;;;6.03;5.30;;;;;;;;;;4980014;28;20437;-88
2022/06/27 06:14:36;;;;;;;7.73;5.40;;;17.50;99.90;;;;;;4994674;28;20438;-88
2022/06/27 06:17:02;;;;;;;8.90;6.40;;;;;;;;;;5007894;28;20462;-87
2022/06/27 06:19:29;;;;;;;5.37;4.50;;;;;;;;;;4982712;28;20443;-88
2022/06/27 06:21:55;;;;;;;4.83;4.43;;;;;;;;;;4992291;28;20463;-87
2022/06/27 06:24:21;;;;;;;5.33;4.70;;;;;;;;;;4975444;28;21068;-88
2022/06/27 06:26:47;;;;;;;12.80;6.47;;;;;;;;;;4987888;28;20481;-88
2022/06/27 06:29:14;;;;;;;9.20;7.73;;;;;;;;;;4977970;28;20433;-88
2022/06/27 06:31:43;;;;;;;8.00;6.03;;;17.60;99.90;;;;;;4997816;28;20834;-89
2022/06/27 06:34:11;;;;;;;18.60;7.13;;;17.70;99.90;;;;;;4974469;28;20527;-87
2022/06/27 06:36:38;;;;;;;7.03;6.00;;;17.50;99.90;;;;;;4978984;28;20831;-89
2022/06/27 06:39:04;;;;;;;7.67;5.00;;;;;;;;;;4979798;28;20443;-88
2022/06/27 06:41:31;;;;;;;8.90;5.63;;;;;;;;;;4977758;28;20852;-88
2022/06/27 06:43:59;;;;;;;8.60;5.50;;;;;;;;;;4984466;28;20478;-88
2022/06/27 06:46:25;;;;;;;7.00;5.90;;;;;;;;;;5004414;28;20450;-88
2022/06/27 06:48:54;;;;;;;5.87;5.30;;;;;;;;;;4999265;28;20454;-88
2022/06/27 06:51:20;;;;;;;7.70;5.73;;;18.10;99.90;;;;;;5010318;28;20427;-87
2022/06/27 06:53:46;;;;;;;6.70;6.00;;;;;;;;;;5000046;28;20453;-88
2022/06/27 06:56:13;;;;;;;8.20;6.07;;;;;;;;;;4985495;28;20454;-88
2022/06/27 06:58:38;;;;;;;7.47;6.70;;;;;;;;;;5003171;28;20464;-86
2022/06/27 07:01:05;;;;;;;6.10;5.10;;;;;;;;;;5031260;22;21057;-83
2022/06/27 07:03:33;;;;;;;9.60;6.40;;;;;;;;;;4979050;28;20490;-84
2022/06/27 07:05:59;;;;;;;9.20;6.87;;;;;;;;;;4978279;28;20507;-85
2022/06/27 07:08:25;;;;;;;9.00;5.90;;;;;;;;;;4974248;28;20490;-83
2022/06/27 07:10:51;;;;;;;8.33;6.83;;;;;;;;;;4973884;28;20420;-84
2022/06/27 07:13:19;;;;;;;9.23;7.13;;;;;;;;;;4972879;28;20491;-83
2022/06/27 07:15:45;;;;;;;8.00;6.27;;;;;;;;;;4978828;28;20430;-84
2022/06/27 07:18:12;;;;;;;10.37;7.27;;;;;;;;;;4980866;28;21049;-82
2022/06/27 07:20:37;;;;;;;8.63;6.87;;;;;;;;;;4992970;28;20903;-85
2022/06/27 07:23:04;;;;;;;6.73;6.00;;;;;;;;;;4983952;28;20473;-83
2022/06/27 07:25:31;;;;;;;8.30;6.03;;;;;;;;;;4980903;28;20442;-84
2022/06/27 07:27:59;;;;;;;9.43;5.63;;;18.20;99.90;;;;;;4979002;28;20476;-84
2022/06/27 07:30:25;;;;;;;8.00;7.10;;;;;;;;;;4990116;28;20445;-84
2022/06/27 07:32:51;;;;;;;7.03;6.33;;;;;;;;;;4981459;28;20457;-85
2022/06/27 07:35:18;;;;;;;7.80;6.20;;;;;;;;;;4987777;28;20437;-86
2022/06/27 07:37:49;;;;;;;10.40;6.60;;;18.40;99.90;;;;;;4991254;28;20457;-83
2022/06/27 07:40:17;;;;;;;8.73;6.20;;;18.30;99.90;;;;;;4992974;28;20438;-84
2022/06/27 07:42:42;;;;;;;5.93;5.33;;;;;;;;;;4987681;28;21022;-85
2022/06/27 07:45:10;;;;;;;7.00;5.53;;;;;;;;;;4980829;28;20521;-85
2022/06/27 07:47:39;;;;;;;9.30;7.03;;;;;;;;;;4972118;28;20426;-85
2022/06/27 07:50:07;;;;;;;6.80;6.10;;;18.00;99.90;;;;;;4971140;28;20431;-83
2022/06/27 07:53:11;;;;;;;8.03;5.87;;;;;;;;;;4972499;28;20927;-84
2022/06/27 07:55:19;;;;;;;10.43;6.50;;;;;;;;;;4972184;28;20840;-85
2022/06/27 07:57:47;;;;;;;8.60;5.77;;;;;;;;;;4970689;28;20934;-85
2022/06/27 08:00:14;;;;;;;6.80;6.10;;;18.20;99.90;;;;;;4970323;28;20455;-85
2022/06/27 08:02:40;;;;;;;7.00;6.30;;;18.20;99.90;;;;;;4974062;28;20415;-85
2022/06/27 08:05:07;;;;;;;9.73;7.03;;;18.10;99.90;;;;;;4975253;28;20411;-86
2022/06/27 08:07:33;;;;;;;8.67;7.23;;;;;;;;;;4980904;28;20431;-84
2022/06/27 08:09:59;;;;;;;13.03;7.43;;;;;;;;;;4981472;28;20788;-85
2022/06/27 08:12:25;;;;;;;8.87;7.70;;;;;;;;;;5007535;28;20418;-88
2022/06/27 08:14:51;;;;;;;7.40;5.70;;;;;;;;;;4992301;28;20438;-84
2022/06/27 08:17:18;;;;;;;4.60;4.20;;;;;;;;;;4990171;28;21131;-85
2022/06/27 08:19:44;;;;;;;5.07;4.57;;;;;;;;;;4988623;28;20431;-83
2022/06/27 08:22:11;;;;;;;6.57;4.40;;;;;;;;;;4994278;28;20406;-84
2022/06/27 08:24:38;;;;;;;5.30;4.27;;;;;;;;;;4993603;28;20458;-86
2022/06/27 08:27:04;;;;;;;5.17;4.13;;;18.50;99.90;;;;;;4995638;28;20415;-83
2022/06/27 08:29:32;;;;;;;4.40;4.00;;;;;;;;;;4994024;28;20426;-85
2022/06/27 08:31:58;;;;;;;4.50;4.10;;;;;;;;;;4984719;28;20458;-85
2022/06/27 08:34:24;;;;;;;6.70;4.50;;;;;;;;;;4980510;28;20474;-84
2022/06/27 08:36:51;;;;;;;4.43;4.03;;;;;;;;;;4993340;28;20974;-85
2022/06/27 08:39:18;;;;;;;4.93;4.53;;;;;;;;;;4970544;28;20539;-87
2022/06/27 08:41:45;;;;;;;5.30;4.50;;;19.00;99.90;;;;;;4979577;28;20805;-84
2022/06/27 08:44:11;;;;;;;4.90;4.07;;;;;;;;;;4981270;28;20466;-85
2022/06/27 08:46:37;;;;;;;3.73;3.43;;;;;;;;;;4981354;28;20434;-86
2022/06/27 08:49:05;;;;;;;4.83;4.30;;;20.30;99.90;;;;;;4983713;28;21104;-85
2022/06/27 08:51:33;;;;;;;4.40;4.00;;;20.80;99.90;;;;;;4984387;28;20462;-84
2022/06/27 08:54:00;;;;;;;5.97;3.43;;;;;;;;;;4979746;28;20516;-84
2022/06/27 08:56:27;;;;;;;3.70;3.10;;;;;;;;;;4976140;28;20851;-86
2022/06/27 08:58:55;;;;;;;3.60;3.30;;;23.50;99.90;;;;;;4986670;28;20403;-84
2022/06/27 09:01:23;;;;;;;3.40;3.10;;;23.40;99.90;;;;;;4986559;28;20463;-88
2022/06/27 09:04:00;;;;;;;7.27;3.57;;;22.80;99.90;;;;;;4988813;28;20471;-84
2022/06/27 09:06:51;;;;;;;3.33;3.13;;;22.20;99.90;;;;;;4994275;28;21176;-84
2022/06/27 09:09:18;;;;;;;4.37;3.97;;;;;;;;;;4974484;28;20863;-83
2022/06/27 09:11:46;;;;;;;3.10;2.80;;;21.90;99.90;;;;;;4977871;28;20453;-84
2022/06/27 09:14:39;;;;;;;4.97;3.87;;;20.90;99.90;;;;;;4975419;28;20434;-87
2022/06/27 09:17:13;;;;;;;3.97;3.50;;;21.10;99.90;;;;;;4984086;28;20454;-84
2022/06/27 09:19:53;;;;;;;4.07;3.77;;;20.90;99.90;;;;;;4992215;28;20447;-87
2022/06/27 09:22:21;;;;;;;3.03;2.73;;;20.70;99.90;;;;;;4975338;28;20461;-88
2022/06/27 09:25:06;;;;;;;2.77;2.57;;;20.50;99.90;;;;;;4980118;28;20466;-88
2022/06/27 09:27:41;;;;;;;4.27;3.53;;;20.50;99.90;;;;;;4973185;28;20478;-87
2022/06/27 09:30:28;;;;;;;5.33;3.90;;;21.10;99.90;;;;;;4973951;28;20496;-85
2022/06/27 09:33:04;;;;;;;3.80;3.50;;;21.20;99.90;;;;;;4977577;28;20441;-86
2022/06/27 09:35:36;;;;;;;4.00;3.70;;;21.70;99.90;;;;;;4973849;28;20464;-86
2022/06/27 09:38:06;;;;;;;4.10;3.70;;;21.10;99.90;;;;;;4987390;28;20403;-87
2022/06/27 09:40:33;;;;;;;3.40;3.10;;;20.80;99.90;;;;;;4972447;28;20438;-85
2022/06/27 09:43:00;;;;;;;4.40;4.00;;;20.50;99.90;;;;;;4987562;28;20400;-86
2022/06/27 09:45:28;;;;;;;4.77;4.37;;;20.70;99.90;;;;;;4988172;28;20773;-83
2022/06/27 09:48:01;;;;;;;4.53;4.13;;;20.90;99.90;;;;;;4973526;28;20942;-85
2022/06/27 09:50:33;;;;;;;5.20;4.17;;;20.90;99.90;;;;;;4973247;28;20457;-86
2022/06/27 09:52:59;;;;;;;4.73;4.23;;;;;;;;;;4987894;28;20414;-85
2022/06/27 09:55:25;;;;;;;5.60;5.00;;;20.90;99.90;;;;;;4973372;28;20486;-84
2022/06/27 09:57:55;;;;;;;5.60;4.40;;;21.70;99.90;;;;;;4988379;28;20441;-86
2022/06/27 10:00:22;;;;;;;4.87;4.03;;;22.40;99.90;;;;;;4986951;28;20455;-85
2022/06/27 10:02:48;;;;;;;5.87;5.27;;;;;;;;;;4986717;28;20498;-86
2022/06/27 10:05:16;;;;;;;4.77;4.33;;;25.10;99.90;;;;;;4975129;28;20442;-86
2022/06/27 10:07:54;;;;;;;7.20;3.43;;;24.80;99.90;;;;;;4979902;28;20498;-84
2022/06/27 10:10:20;;;;;;;4.50;3.43;;;;;;;;;;4978960;28;20470;-85
2022/06/27 10:12:59;;;;;;;4.37;2.77;;;24.50;99.90;;;;;;4986412;28;20485;-87
2022/06/27 10:15:27;;;;;;;3.50;3.20;;;23.50;99.90;;;;;;4993402;28;20422;-86
2022/06/27 10:17:54;;;;;;;2.87;2.67;;;23.20;99.90;;;;;;4991789;28;20468;-86
2022/06/27 10:20:26;;;;;;;2.97;2.67;;;22.40;99.90;;;;;;4992311;28;20454;-88
2022/06/27 10:23:05;;;;;;;3.57;2.53;;;;;;;;;;4994373;28;20743;-85
2022/06/27 10:25:30;;;;;;;4.47;3.60;;;;;;;;;;4982105;28;20406;-88
2022/06/27 10:28:17;;;;;;;2.93;2.63;;;23.50;99.90;;;;;;4979163;28;21122;-88
2022/06/27 10:30:43;;;;;;;8.03;2.83;;;;;;;;;;4984154;28;20485;-87
2022/06/27 10:33:21;;;;;;;3.53;3.23;;;23.30;99.90;;;;;;4978045;28;20433;-86
2022/06/27 10:36:02;;;;;;;3.90;3.50;;;22.80;99.90;;;;;;4979156;28;20477;-86
2022/06/27 10:38:30;;;;;;;4.63;4.23;;;22.60;99.90;;;;;;4980971;28;20454;-85
2022/06/27 10:41:01;;;;;;;5.33;4.83;;;23.00;99.90;;;;;;4982647;28;20982;-86
2022/06/27 10:43:36;;;;;;;5.87;5.27;;;;;;;;;;4993631;28;20582;-85
2022/06/27 10:46:22;;;;;;;4.10;3.80;;;24.00;99.90;;;;;;4982174;28;20513;-84
2022/06/27 10:48:50;;;;;;;3.90;2.90;;;23.00;99.90;;;;;;4978320;28;20449;-86
2022/06/27 10:51:32;;;;;;;5.03;4.20;;;22.20;99.90;;;;;;4977144;28;20427;-87
2022/06/27 10:54:06;;;;;;;4.37;3.97;;;22.10;99.90;;;;;;4976157;28;20423;-87
2022/06/27 10:56:36;;;;;;;5.53;4.27;;;21.80;99.90;;;;;;4976146;28;20422;-88
2022/06/27 10:59:05;;;;;;;4.50;4.10;;;21.80;99.90;;;;;;4975905;28;20982;-84
2022/06/27 11:01:32;;;;;;;4.47;3.93;;;21.60;99.90;;;;;;4974808;28;21003;-89
2022/06/27 11:03:58;;;;;;;4.97;4.47;;;;;;;;;;4977272;28;20470;-86
2022/06/27 11:06:24;;;;;;;4.67;4.17;;;;;;;;;;4975891;28;20427;-83
2022/06/27 11:08:53;;;;;;;4.53;4.10;;;21.30;99.90;;;;;;4976949;28;20763;-84
2022/06/27 11:11:20;;;;;;;6.00;3.97;;;21.40;99.90;;;;;;4981641;28;20522;-85
2022/06/27 11:13:46;;;;;;;5.60;4.63;;;;;;;;;;4985744;28;20454;-85
2022/06/27 11:16:38;;;;;;;4.47;3.80;;;22.10;99.90;;;;;;4976328;28;21160;-87
2022/06/27 11:20:04;;;;;;;3.80;3.37;;;22.90;99.90;;;;;;4979041;28;20454;-87
2022/06/27 11:21:54;;;;;;;4.40;3.00;;;;;;;;;;4981701;28;21102;-88
2022/06/27 11:24:20;;;;;;;3.43;2.70;;;;;;;;;;4982498;28;21307;-87
2022/06/27 11:26:48;;;;;;;4.00;3.10;;;23.10;99.90;;;;;;4997336;28;20435;-87
2022/06/27 11:32:13;;;;;;;3.27;2.97;;;23.00;99.90;;;;;;4981863;28;20539;-87
2022/06/27 11:34:41;;;;;;;6.50;3.03;;;22.90;99.90;;;;;;4980814;28;20427;-87
2022/06/27 11:37:12;;;;;;;5.33;4.20;;;22.40;99.90;;;;;;4982101;28;20442;-87
2022/06/27 11:39:39;;;;;;;4.77;3.30;;;22.80;99.90;;;;;;4990209;28;20564;-83
2022/06/27 11:42:10;;;;;;;6.47;4.43;;;22.60;99.90;;;;;;4996212;28;20462;-87
2022/06/27 11:44:56;;;;;;;7.43;4.03;;;22.70;99.90;;;;;;4980945;28;20458;-86
2022/06/27 11:47:26;;;;;;;5.17;3.57;;;22.60;99.90;;;;;;4983153;28;20433;-87
2022/06/27 11:50:01;;;;;;;5.50;3.53;;;22.60;99.90;;;;;;4980842;28;20434;-88
2022/06/27 11:52:39;;;;;;;5.20;4.20;;;22.60;99.90;;;;;;4978217;28;20886;-87
2022/06/27 11:55:08;;;;;;;5.40;4.33;;;22.10;99.90;;;;;;4995787;28;20890;-84
2022/06/27 11:57:34;;;;;;;7.83;4.00;;;;;;;;;;4980162;28;20469;-85
2022/06/27 12:00:03;;;;;;;4.57;3.80;;;22.60;99.90;;;;;;4979271;28;20861;-87
2022/06/27 12:02:29;;;;;;;4.57;4.07;;;22.80;99.90;;;;;;4996117;28;20540;-85
2022/06/27 12:05:18;;;;;;;5.90;4.53;;;22.80;99.90;;;;;;4981961;28;20502;-88
2022/06/27 12:08:06;;;;;;;5.37;3.90;;;23.20;99.90;;;;;;4995027;28;20862;-89
2022/06/27 12:13:41;;;;;;;6.73;4.20;;;22.10;99.90;;;;;;4980299;28;20819;-84
2022/06/27 12:16:10;;;;;;;4.80;3.40;;;21.70;99.90;;;;;;4980877;28;20474;-85
2022/06/27 12:18:38;;;;;;;9.87;4.30;;;21.70;99.90;;;;;;4978838;28;21431;-88
2022/06/27 12:21:04;;;;;;;4.07;3.43;;;;;;;;;;4990671;28;21051;-85
2022/06/27 12:23:30;;;;;;;4.63;4.10;;;;;;;;;;4977165;28;20545;-84
2022/06/27 12:25:56;;;;;;;3.77;3.33;;;;;;;;;;4978325;28;20825;-87
2022/06/27 12:28:23;;;;;;;3.57;2.77;;;;;;;;;;4977076;28;20440;-86
2022/06/27 12:30:49;;;;;;;3.80;2.70;;;;;;;;;;4996595;28;20823;-89
2022/06/27 12:33:15;;;;;;;3.53;3.07;;;;;;;;;;4977504;28;20550;-85
2022/06/27 12:35:41;;;;;;;4.17;3.10;;;;;;;;;;4979495;28;20443;-86
2022/06/27 12:38:07;;;;;;;4.70;3.83;;;;;;;;;;4979726;28;20430;-87
2022/06/27 12:40:34;;;;;;;4.40;3.10;;;;;;;;;;4975816;28;20454;-86
2022/06/27 12:43:00;;;;;;;3.77;2.87;;;;;;;;;;4976110;28;20514;-86
2022/06/27 12:45:26;;;;;;;3.30;3.00;;;;;;;;;;4994532;28;20493;-86
2022/06/27 12:47:52;;;;;;;4.43;3.13;;;;;;;;;;4977035;28;20434;-84
2022/06/27 12:50:18;;;;;;;4.20;3.00;;;;;;;;;;4975624;28;20521;-87
2022/06/27 12:52:44;;;;;;;4.90;3.77;;;;;;;;;;4995159;28;20439;-86
2022/06/27 12:55:10;;;;;;;3.30;3.00;;;23.80;99.90;;;;;;4993909;28;20432;-85
2022/06/27 12:57:36;;;;;;;4.43;4.03;;;;;;;;;;4979157;28;20445;-87
2022/06/27 13:00:04;;;;;;;4.70;4.10;;;24.40;99.90;;;;;;4977306;28;20474;-87
2022/06/27 13:02:30;;;;;;;4.30;3.53;;;;;;;;;;4977620;28;20438;-88
2022/06/27 13:04:56;;;;;;;5.43;4.33;;;;;;;;;;4977976;28;20549;-84
2022/06/27 13:07:22;;;;;;;3.50;3.10;;;;;;;;;;4977274;28;20468;-86
2022/06/27 13:09:53;;;;;;;4.73;4.23;;;22.70;99.90;;;;;;4990337;28;20434;-86
2022/06/27 13:12:19;;;;;;;5.93;4.43;;;;;;;;;;4980206;28;20552;-87
2022/06/27 13:14:45;;;;;;;6.07;4.30;;;;;;;;;;4978675;28;20593;-89
2022/06/27 13:17:11;;;;;;;7.93;5.07;;;;;;;;;;4975750;28;20580;-83
2022/06/27 13:19:37;;;;;;;11.60;5.20;;;;;;;;;;4974865;28;21282;-88
2022/06/27 13:22:03;;;;;;;8.87;4.60;;;;;;;;;;4976962;28;20967;-86
2022/06/27 13:24:29;;;;;;;7.40;5.73;;;;;;;;;;4977385;28;20462;-87
2022/06/27 13:26:56;;;;;;;5.67;4.97;;;;;;;;;;4976393;28;20439;-87
2022/06/27 13:29:23;;;;;;;9.70;5.53;;;23.30;99.90;;;;;;4974767;28;20434;-84
2022/06/27 13:31:52;;;;;;;6.47;5.70;;;;;;;;;;4975371;28;20461;-89
2022/06/27 13:34:18;;;;;;;6.07;5.47;;;;;;;;;;4972370;28;21040;-85
2022/06/27 13:36:45;;;;;;;6.17;5.50;;;;;;;;;;4974769;28;20434;-87
2022/06/27 13:39:12;;;;;;;7.03;5.77;;;;;;;;;;4975513;28;20500;-89
2022/06/27 13:41:38;;;;;;;6.10;5.50;;;;;;;;;;4977165;28;20454;-85
2022/06/27 13:44:04;;;;;;;7.47;6.20;;;;;;;;;;4990461;28;20474;-88
2022/06/27 13:46:30;;;;;;;8.73;6.10;;;;;;;;;;4975748;28;20439;-86
2022/06/27 13:48:56;;;;;;;7.53;5.93;;;;;;;;;;4974704;28;20434;-86
2022/06/27 13:51:22;;;;;;;5.87;5.23;;;;;;;;;;4971416;28;21086;-90
2022/06/27 13:53:48;;;;;;;5.47;4.97;;;;;;;;;;4973073;28;20435;-87
2022/06/27 13:56:14;;;;;;;6.87;4.83;;;;;;;;;;4993662;28;20431;-86
2022/06/27 13:58:40;;;;;;;6.23;5.13;;;;;;;;;;4989710;28;20453;-86
2022/06/27 14:01:06;;;;;;;8.53;5.20;;;;;;;;;;4973604;28;20480;-89
2022/06/27 14:03:32;;;;;;;6.03;4.87;;;;;;;;;;4975463;28;20466;-87
2022/06/27 14:07:36;;;;;;;6.50;5.70;;;;;;;;;;4972857;28;20913;-90
2022/06/27 14:08:44;;;;;;;8.20;5.40;;;;;;;;;;4977006;28;20442;-87
2022/06/27 14:11:10;;;;;;;6.87;5.00;;;;;;;;;;4975480;28;20457;-86